createdAt,value
2017-07-06T00:01:19.259Z,23.70
2017-07-06T00:03:46.717Z,28.00
2017-07-06T00:06:14.198Z,27.30
2017-07-06T00:08:42.445Z,26.30
2017-07-06T00:11:09.899Z,26.60
2017-07-06T00:13:37.376Z,27.20
2017-07-06T00:16:04.846Z,29.20
2017-07-06T00:18:32.311Z,26.53
2017-07-06T00:21:00.546Z,25.50
2017-07-06T00:23:28.043Z,27.60
2017-07-06T00:25:56.258Z,32.60
2017-07-06T00:28:23.730Z,31.10
2017-07-06T00:30:51.198Z,32.43
2017-07-06T00:33:18.669Z,28.37
2017-07-06T00:35:46.134Z,29.50
2017-07-06T00:38:14.386Z,29.93
2017-07-06T00:40:41.871Z,28.90
2017-07-06T00:43:10.111Z,29.37
2017-07-06T00:45:37.580Z,28.60
2017-07-06T00:48:05.038Z,29.87
2017-07-06T00:50:32.493Z,26.47
2017-07-06T00:52:59.970Z,28.30
2017-07-06T00:55:28.199Z,30.30
2017-07-06T00:57:55.694Z,29.73
2017-07-06T01:00:23.178Z,34.50
2017-07-06T01:02:50.668Z,31.10
2017-07-06T01:05:18.139Z,28.37
2017-07-06T01:07:45.622Z,29.93
2017-07-06T01:10:13.090Z,29.47
2017-07-06T01:12:40.552Z,30.13
2017-07-06T01:15:08.080Z,30.20
2017-07-06T01:17:35.546Z,30.23
2017-07-06T01:20:03.015Z,31.47
2017-07-06T01:22:30.479Z,33.40
2017-07-06T01:24:58.705Z,30.27
2017-07-06T01:27:26.167Z,30.67
2017-07-06T01:29:53.703Z,29.57
2017-07-06T01:32:21.155Z,33.70
2017-07-06T01:34:48.631Z,34.10
2017-07-06T01:37:16.101Z,29.77
2017-07-06T01:39:43.596Z,28.97
2017-07-06T01:42:11.844Z,29.70
2017-07-06T01:44:39.293Z,30.90
2017-07-06T01:47:06.750Z,32.77
2017-07-06T01:49:34.248Z,33.23
2017-07-06T01:52:02.471Z,31.57
2017-07-06T01:54:30.008Z,33.00
2017-07-06T01:56:57.478Z,31.77
2017-07-06T01:59:24.954Z,33.07
2017-07-06T02:01:52.431Z,36.40
2017-07-06T02:04:19.923Z,37.40
2017-07-06T02:06:47.387Z,37.20
2017-07-06T02:09:14.844Z,39.53
2017-07-06T02:11:42.305Z,45.50
2017-07-06T02:14:09.778Z,35.73
2017-07-06T02:16:37.238Z,41.27
2017-07-06T02:19:04.706Z,43.67
2017-07-06T02:21:32.175Z,46.03
2017-07-06T02:23:59.647Z,38.73
2017-07-06T02:26:27.867Z,40.00
2017-07-06T02:28:55.344Z,41.97
2017-07-06T02:31:22.877Z,47.37
2017-07-06T02:33:50.326Z,41.50
2017-07-06T02:36:17.828Z,41.70
2017-07-06T02:38:45.299Z,47.20
2017-07-06T02:41:12.768Z,40.37
2017-07-06T02:43:41.019Z,43.23
2017-07-06T02:46:08.486Z,45.20
2017-07-06T02:48:35.947Z,44.20
2017-07-06T02:51:03.424Z,40.83
2017-07-06T02:53:30.887Z,40.60
2017-07-06T02:55:58.350Z,38.80
2017-07-06T02:58:25.831Z,39.07
2017-07-06T03:00:53.294Z,38.50
2017-07-06T03:03:20.769Z,40.40
2017-07-06T03:05:48.247Z,39.13
2017-07-06T03:08:16.466Z,40.17
2017-07-06T03:10:43.974Z,40.37
2017-07-06T03:13:18.184Z,42.90
2017-07-06T03:15:45.647Z,43.03
2017-07-06T03:18:13.883Z,38.30
2017-07-06T03:20:41.350Z,44.00
2017-07-06T03:23:08.825Z,41.53
2017-07-06T03:25:36.300Z,46.27
2017-07-06T03:28:04.546Z,42.17
2017-07-06T03:30:32.013Z,39.93
2017-07-06T03:32:59.475Z,39.50
2017-07-06T03:35:27.719Z,44.87
2017-07-06T03:37:55.200Z,40.70
2017-07-06T03:40:22.679Z,39.90
2017-07-06T03:42:50.920Z,39.63
2017-07-06T03:45:18.380Z,46.07
2017-07-06T03:47:45.842Z,40.90
2017-07-06T03:50:13.402Z,43.00
2017-07-06T03:52:40.868Z,39.17
2017-07-06T03:55:08.327Z,37.93
2017-07-06T03:57:36.576Z,43.30
2017-07-06T04:00:04.043Z,40.70
2017-07-06T04:02:31.535Z,41.60
2017-07-06T04:04:59.770Z,49.37
2017-07-06T04:07:27.239Z,42.13
2017-07-06T04:09:54.695Z,42.53
2017-07-06T04:12:22.165Z,41.27
2017-07-06T04:14:50.453Z,50.33
2017-07-06T04:17:18.709Z,42.17
2017-07-06T04:19:46.162Z,39.60
2017-07-06T04:22:13.647Z,37.60
2017-07-06T04:24:41.100Z,34.30
2017-07-06T04:27:08.589Z,38.80
2017-07-06T04:29:36.100Z,30.60
2017-07-06T04:32:04.454Z,24.93
2017-07-06T04:34:32.012Z,27.00
2017-07-06T04:36:59.478Z,27.50
2017-07-06T04:39:26.944Z,28.20
2017-07-06T04:41:54.425Z,21.00
2017-07-06T04:44:22.687Z,22.20
2017-07-06T04:46:50.906Z,18.63
2017-07-06T04:49:18.384Z,18.40
2017-07-06T04:51:45.851Z,20.10
2017-07-06T04:54:13.429Z,18.67
2017-07-06T04:56:40.894Z,18.87
2017-07-06T04:59:09.140Z,20.60
2017-07-06T05:01:36.644Z,22.30
2017-07-06T05:04:04.128Z,19.20
2017-07-06T05:06:31.596Z,21.17
2017-07-06T05:08:59.058Z,18.27
2017-07-06T05:11:26.536Z,21.30
2017-07-06T05:13:54.004Z,20.20
2017-07-06T05:16:22.227Z,20.40
2017-07-06T05:18:49.712Z,23.03
2017-07-06T05:21:17.200Z,18.97
2017-07-06T05:23:44.649Z,26.30
2017-07-06T05:26:12.891Z,25.83
2017-07-06T05:28:40.350Z,26.97
2017-07-06T05:31:07.831Z,27.97
2017-07-06T05:33:36.096Z,28.03
2017-07-06T05:36:03.585Z,25.87
2017-07-06T05:38:31.064Z,26.53
2017-07-06T05:40:58.561Z,26.37
2017-07-06T05:43:26.044Z,28.93
2017-07-06T05:45:53.562Z,25.60
2017-07-06T05:48:21.034Z,25.33
2017-07-06T05:50:48.499Z,27.37
2017-07-06T05:53:15.962Z,28.57
2017-07-06T05:55:43.430Z,24.93
2017-07-06T05:58:11.654Z,26.50
2017-07-06T06:00:39.117Z,23.23
2017-07-06T06:03:06.588Z,21.20
2017-07-06T06:05:34.058Z,19.27
2017-07-06T06:08:01.562Z,15.40
2017-07-06T06:10:29.034Z,14.97
2017-07-06T06:12:56.493Z,12.00
2017-07-06T06:15:23.991Z,13.70
2017-07-06T06:17:51.452Z,12.73
2017-07-06T06:20:19.695Z,13.63
2017-07-06T06:22:47.155Z,12.10
2017-07-06T06:25:14.627Z,12.50
2017-07-06T06:27:42.090Z,14.27
2017-07-06T06:30:10.330Z,13.87
2017-07-06T06:32:37.804Z,16.20
2017-07-06T06:35:05.271Z,12.80
2017-07-06T06:37:32.763Z,15.00
2017-07-06T06:40:00.330Z,13.20
2017-07-06T06:42:27.907Z,12.47
2017-07-06T06:44:55.364Z,13.60
2017-07-06T06:47:22.846Z,15.77
2017-07-06T06:49:50.302Z,14.03
2017-07-06T06:52:17.761Z,11.97
2017-07-06T06:54:45.234Z,13.17
2017-07-06T06:57:12.699Z,11.90
2017-07-06T06:59:40.937Z,12.93
2017-07-06T07:02:08.411Z,12.00
2017-07-06T07:04:35.876Z,11.40
2017-07-06T07:07:03.338Z,13.97
2017-07-06T07:09:31.584Z,11.73
2017-07-06T07:11:59.048Z,11.97
2017-07-06T07:14:27.153Z,12.13
2017-07-06T07:16:55.726Z,14.43
2017-07-06T07:19:24.398Z,12.00
2017-07-06T07:21:52.009Z,11.70
2017-07-06T07:24:21.200Z,12.83
2017-07-06T07:26:50.410Z,14.07
2017-07-06T07:29:18.698Z,13.23
2017-07-06T07:31:47.598Z,13.87
2017-07-06T07:34:15.358Z,11.07
2017-07-06T07:36:42.827Z,10.63
2017-07-06T07:39:13.408Z,12.90
2017-07-06T07:41:41.839Z,12.67
2017-07-06T07:44:09.311Z,13.13
2017-07-06T07:46:36.877Z,14.17
2017-07-06T07:49:05.136Z,12.80
2017-07-06T07:51:32.868Z,14.90
2017-07-06T07:54:00.370Z,10.50
2017-07-06T07:56:27.834Z,11.63
2017-07-06T07:58:55.332Z,13.30
2017-07-06T08:01:22.792Z,16.00
2017-07-06T08:03:50.252Z,13.47
2017-07-06T08:06:17.752Z,11.60
2017-07-06T08:08:45.214Z,13.60
2017-07-06T08:11:12.671Z,16.87
2017-07-06T08:13:40.144Z,12.30
2017-07-06T08:16:07.606Z,11.00
2017-07-06T08:18:35.054Z,9.53
2017-07-06T08:21:02.547Z,10.47
2017-07-06T08:23:30.006Z,10.60
2017-07-06T08:25:57.472Z,7.03
2017-07-06T08:28:24.948Z,7.33
2017-07-06T08:30:52.396Z,6.60
2017-07-06T08:33:19.852Z,8.47
2017-07-06T08:35:47.326Z,7.87
2017-07-06T08:38:14.855Z,11.10
2017-07-06T08:40:42.325Z,9.30
2017-07-06T08:43:09.797Z,8.40
2017-07-06T08:45:37.250Z,8.30
2017-07-06T08:48:04.716Z,6.10
2017-07-06T08:50:32.184Z,7.67
2017-07-06T08:53:00.419Z,7.40
2017-07-06T08:55:27.878Z,6.07
2017-07-06T08:57:55.335Z,4.60
2017-07-06T09:00:22.869Z,7.47
2017-07-06T09:02:50.324Z,8.00
2017-07-06T09:05:17.795Z,6.50
2017-07-06T09:07:45.269Z,5.60
2017-07-06T09:10:12.755Z,5.10
2017-07-06T09:12:40.991Z,3.60
2017-07-06T09:15:08.453Z,8.33
2017-07-06T09:17:35.921Z,8.47
2017-07-06T09:20:03.374Z,9.67
2017-07-06T09:22:30.835Z,9.13
2017-07-06T09:24:58.303Z,8.93
2017-07-06T09:27:25.772Z,7.97
2017-07-06T09:29:53.232Z,7.80
2017-07-06T09:32:20.680Z,6.60
2017-07-06T09:34:48.167Z,8.70
2017-07-06T09:37:15.602Z,6.67
2017-07-06T09:39:43.051Z,6.23
2017-07-06T09:42:11.287Z,6.17
2017-07-06T09:44:38.743Z,6.20
2017-07-06T09:47:06.194Z,5.00
2017-07-06T09:49:33.665Z,3.27
2017-07-06T09:52:01.122Z,4.00
2017-07-06T09:54:28.574Z,6.10
2017-07-06T09:56:56.039Z,4.77
2017-07-06T09:59:23.537Z,4.30
2017-07-06T10:01:50.981Z,4.83
2017-07-06T10:04:19.231Z,5.57
2017-07-06T10:06:46.702Z,4.90
2017-07-06T10:09:14.471Z,6.23
2017-07-06T10:11:42.711Z,5.40
2017-07-06T10:14:10.171Z,5.87
2017-07-06T10:16:37.634Z,5.87
2017-07-06T10:19:05.095Z,5.10
2017-07-06T10:21:32.563Z,4.17
2017-07-06T10:24:00.032Z,4.20
2017-07-06T10:26:28.259Z,4.27
2017-07-06T10:28:55.722Z,3.93
2017-07-06T10:31:23.261Z,3.60
2017-07-06T10:33:50.724Z,3.70
2017-07-06T10:36:18.180Z,3.40
2017-07-06T10:38:45.652Z,2.67
2017-07-06T10:41:13.107Z,2.63
2017-07-06T10:43:40.574Z,2.33
2017-07-06T10:46:08.097Z,3.57
2017-07-06T10:48:35.556Z,2.70
2017-07-06T10:51:03.019Z,2.50
2017-07-06T10:53:30.496Z,3.57
2017-07-06T10:55:57.989Z,2.80
2017-07-06T10:58:25.438Z,3.20
2017-07-06T11:00:52.893Z,2.43
2017-07-06T11:03:20.361Z,3.10
2017-07-06T11:05:47.815Z,3.53
2017-07-06T11:08:15.300Z,3.10
2017-07-06T11:10:42.771Z,3.13
2017-07-06T11:13:10.227Z,2.70
2017-07-06T11:15:37.698Z,3.00
2017-07-06T11:18:06.006Z,2.83
2017-07-06T11:20:33.454Z,3.30
2017-07-06T11:23:00.922Z,2.47
2017-07-06T11:25:28.374Z,3.10
2017-07-06T11:27:55.835Z,2.70
2017-07-06T11:30:23.295Z,3.20
2017-07-06T11:32:50.755Z,4.37
2017-07-06T11:35:18.216Z,4.37
2017-07-06T11:37:45.667Z,4.80
2017-07-06T11:40:13.907Z,5.90
2017-07-06T11:42:41.367Z,5.40
2017-07-06T11:45:08.825Z,4.50
2017-07-06T11:47:36.279Z,6.03
2017-07-06T11:50:03.743Z,6.27
2017-07-06T11:52:31.207Z,5.57
2017-07-06T11:54:58.655Z,6.00
2017-07-06T11:57:26.118Z,5.70
2017-07-06T11:59:53.572Z,7.63
2017-07-06T12:02:21.041Z,6.67
2017-07-06T12:04:48.499Z,6.90
2017-07-06T12:07:17.723Z,6.30
2017-07-06T12:09:45.179Z,5.13
2017-07-06T12:12:12.643Z,4.70
2017-07-06T12:14:40.099Z,6.80
2017-07-06T12:17:07.549Z,4.80
2017-07-06T12:19:35.030Z,6.53
2017-07-06T12:22:02.519Z,6.60
2017-07-06T12:24:29.993Z,5.50
2017-07-06T12:26:58.220Z,4.90
2017-07-06T12:29:25.673Z,5.37
2017-07-06T12:31:53.124Z,4.70
2017-07-06T12:34:20.603Z,4.90
2017-07-06T12:36:48.070Z,4.30
2017-07-06T12:39:15.524Z,6.03
2017-07-06T12:41:42.995Z,5.13
2017-07-06T12:44:10.453Z,4.70
2017-07-06T12:46:37.915Z,5.27
2017-07-06T12:49:05.374Z,5.57
2017-07-06T12:51:33.604Z,5.10
2017-07-06T12:54:01.074Z,6.30
2017-07-06T12:56:28.542Z,5.13
2017-07-06T12:58:56.019Z,6.10
2017-07-06T13:01:23.474Z,6.80
2017-07-06T13:03:50.941Z,5.53
2017-07-06T13:06:18.402Z,6.70
2017-07-06T13:08:46.622Z,7.27
2017-07-06T13:11:14.101Z,8.27
2017-07-06T13:13:41.557Z,9.23
2017-07-06T13:16:09.018Z,8.67
2017-07-06T13:18:36.515Z,6.50
2017-07-06T13:21:04.003Z,9.90
2017-07-06T13:23:31.499Z,8.33
2017-07-06T13:25:59.748Z,8.90
2017-07-06T13:28:27.227Z,11.17
2017-07-06T13:30:54.689Z,11.57
2017-07-06T13:33:22.161Z,10.50
2017-07-06T13:35:49.668Z,8.93
2017-07-06T13:38:17.144Z,10.73
2017-07-06T13:40:44.620Z,11.73
2017-07-06T13:43:12.872Z,8.70
2017-07-06T13:45:40.332Z,8.97
2017-07-06T13:48:07.802Z,10.37
2017-07-06T13:50:35.266Z,13.37
2017-07-06T13:53:03.536Z,12.70
2017-07-06T13:55:31.002Z,12.43
2017-07-06T13:57:59.221Z,12.23
2017-07-06T14:00:26.693Z,10.77
2017-07-06T14:02:54.163Z,11.10
2017-07-06T14:05:21.625Z,10.77
2017-07-06T14:07:49.106Z,13.53
2017-07-06T14:10:17.462Z,11.77
2017-07-06T14:12:44.913Z,11.93
2017-07-06T14:15:12.389Z,13.30
2017-07-06T14:17:39.854Z,10.83
2017-07-06T14:20:07.434Z,10.37
2017-07-06T14:22:34.966Z,10.60
2017-07-06T14:25:02.567Z,11.70
2017-07-06T14:27:30.019Z,12.20
2017-07-06T14:29:57.495Z,10.70
2017-07-06T14:32:24.948Z,10.60
2017-07-06T14:34:52.406Z,9.73
2017-07-06T14:37:19.874Z,10.53
2017-07-06T14:39:47.352Z,11.83
2017-07-06T14:42:14.819Z,9.60
2017-07-06T14:44:42.295Z,8.97
2017-07-06T14:47:10.522Z,7.40
2017-07-06T14:49:37.984Z,9.50
2017-07-06T14:52:05.455Z,8.60
2017-07-06T14:54:32.912Z,9.60
2017-07-06T14:57:00.374Z,9.77
2017-07-06T14:59:27.898Z,10.40
2017-07-06T15:01:55.367Z,9.77
2017-07-06T15:04:22.827Z,9.30
2017-07-06T15:06:50.323Z,9.50
2017-07-06T15:09:18.554Z,8.87
2017-07-06T15:11:46.023Z,9.27
2017-07-06T15:14:13.526Z,8.40
2017-07-06T15:16:41.097Z,8.90
2017-07-06T15:19:08.557Z,10.17
2017-07-06T15:21:36.044Z,9.50
2017-07-06T15:24:03.625Z,8.13
2017-07-06T15:26:31.881Z,8.70
2017-07-06T15:28:59.342Z,8.87
2017-07-06T15:31:26.812Z,9.90
2017-07-06T15:33:54.448Z,10.23
2017-07-06T15:36:21.921Z,8.90
2017-07-06T15:38:49.370Z,9.80
2017-07-06T15:41:16.997Z,8.40
2017-07-06T15:43:44.699Z,9.30
2017-07-06T15:46:12.155Z,11.23
2017-07-06T15:48:39.724Z,9.67
2017-07-06T15:51:07.960Z,8.73
2017-07-06T15:53:35.431Z,8.40
2017-07-06T15:56:04.349Z,9.03
2017-07-06T15:58:31.936Z,7.50
2017-07-06T16:00:59.398Z,7.47
2017-07-06T16:03:26.858Z,8.37
2017-07-06T16:05:54.343Z,8.10
2017-07-06T16:08:21.804Z,8.97
2017-07-06T16:10:49.266Z,8.70
2017-07-06T16:13:16.753Z,8.47
2017-07-06T16:15:44.241Z,7.47
2017-07-06T16:18:11.742Z,7.80
2017-07-06T16:20:39.217Z,7.93
2017-07-06T16:23:07.442Z,7.10
2017-07-06T16:25:34.928Z,6.90
2017-07-06T16:28:02.418Z,9.40
2017-07-06T16:30:29.875Z,12.67
2017-07-06T16:32:58.103Z,13.83
2017-07-06T16:35:25.572Z,12.60
2017-07-06T16:37:53.051Z,12.40
2017-07-06T16:40:20.514Z,12.33
2017-07-06T16:42:48.761Z,11.37
2017-07-06T16:45:16.220Z,9.20
2017-07-06T16:47:43.719Z,10.43
2017-07-06T16:50:11.214Z,11.90
2017-07-06T16:52:38.763Z,12.00
2017-07-06T16:55:08.613Z,10.17
2017-07-06T16:57:36.095Z,10.90
2017-07-06T17:00:04.478Z,11.50
2017-07-06T17:02:32.730Z,10.50
2017-07-06T17:05:00.289Z,9.00
2017-07-06T17:07:27.756Z,11.30
2017-07-06T17:09:55.999Z,10.77
2017-07-06T17:12:23.502Z,10.17
2017-07-06T17:14:50.958Z,11.27
2017-07-06T17:17:18.439Z,12.73
2017-07-06T17:19:45.969Z,15.17
2017-07-06T17:22:13.430Z,13.47
2017-07-06T17:24:40.892Z,14.37
2017-07-06T17:27:08.374Z,15.10
2017-07-06T17:29:35.856Z,14.23
2017-07-06T17:32:03.374Z,14.53
2017-07-06T17:34:30.842Z,16.00
2017-07-06T17:36:58.304Z,20.30
2017-07-06T17:39:25.775Z,20.00
2017-07-06T17:41:53.246Z,19.47
2017-07-06T17:44:20.756Z,18.73
2017-07-06T17:46:48.287Z,19.60
2017-07-06T17:49:15.787Z,21.53
2017-07-06T17:51:43.244Z,20.17
2017-07-06T17:54:10.718Z,19.00
2017-07-06T17:56:38.424Z,20.80
2017-07-06T17:59:06.662Z,23.93
2017-07-06T18:01:34.122Z,20.00
2017-07-06T18:04:01.606Z,20.13
2017-07-06T18:06:29.088Z,19.80
2017-07-06T18:08:56.578Z,19.17
2017-07-06T18:11:24.055Z,20.60
2017-07-06T18:13:51.510Z,20.57
2017-07-06T18:16:19.004Z,19.00
2017-07-06T18:18:46.651Z,19.90
2017-07-06T18:21:14.885Z,19.87
2017-07-06T18:23:42.406Z,19.73
2017-07-06T18:26:10.127Z,18.10
2017-07-06T18:28:37.595Z,20.53
2017-07-06T18:31:05.054Z,17.17
2017-07-06T18:33:32.527Z,18.20
2017-07-06T18:36:00.000Z,18.47
2017-07-06T18:38:27.461Z,17.90
2017-07-06T18:40:54.940Z,18.87
2017-07-06T18:43:22.417Z,17.10
2017-07-06T18:45:49.921Z,18.00
2017-07-06T18:48:17.399Z,17.40
2017-07-06T18:50:44.850Z,17.57
2017-07-06T18:53:12.457Z,18.67
2017-07-06T18:55:39.948Z,20.30
2017-07-06T18:58:07.474Z,24.60
2017-07-06T19:00:34.947Z,22.00
2017-07-06T19:03:02.467Z,20.27
2017-07-06T19:05:37.651Z,21.37
2017-07-06T19:08:05.880Z,23.37
2017-07-06T19:10:33.353Z,20.70
2017-07-06T19:13:00.818Z,19.60
2017-07-06T19:15:28.749Z,20.20
2017-07-06T19:17:56.228Z,23.17
2017-07-06T19:20:23.789Z,20.03
2017-07-06T19:22:51.234Z,22.70
2017-07-06T19:25:18.715Z,22.10
2017-07-06T19:27:46.172Z,24.00
2017-07-06T19:30:14.413Z,24.20
2017-07-06T19:32:41.874Z,27.03
2017-07-06T19:35:09.402Z,25.70
2017-07-06T19:37:36.867Z,26.53
2017-07-06T19:40:04.534Z,27.40
2017-07-06T19:42:32.007Z,30.03
2017-07-06T19:44:59.515Z,29.77
2017-07-06T19:47:27.107Z,30.47
2017-07-06T19:49:54.570Z,27.17
2017-07-06T19:52:22.033Z,31.47
2017-07-06T19:54:49.508Z,28.23
2017-07-06T19:57:16.967Z,29.20
2017-07-06T19:59:44.426Z,30.63
2017-07-06T20:02:12.077Z,30.03
2017-07-06T20:04:39.553Z,26.60
2017-07-06T20:07:07.495Z,24.63
2017-07-06T20:09:34.967Z,24.70
2017-07-06T20:12:02.459Z,28.00
2017-07-06T20:14:29.916Z,25.90
2017-07-06T20:16:57.383Z,21.93
2017-07-06T20:19:24.853Z,19.83
2017-07-06T20:21:52.315Z,20.50
2017-07-06T20:24:19.794Z,19.17
2017-07-06T20:26:47.255Z,18.60
2017-07-06T20:29:14.849Z,24.40
2017-07-06T20:31:42.322Z,23.70
2017-07-06T20:34:09.799Z,24.27
2017-07-06T20:36:37.260Z,22.40
2017-07-06T20:39:05.662Z,17.87
2017-07-06T20:41:33.115Z,15.23
2017-07-06T20:44:01.082Z,22.30
2017-07-06T20:46:28.566Z,22.17
2017-07-06T20:48:56.026Z,24.87
2017-07-06T20:51:23.508Z,25.23
2017-07-06T20:53:50.979Z,21.07
2017-07-06T20:56:18.543Z,21.53
2017-07-06T20:58:46.035Z,24.70
2017-07-06T21:01:13.503Z,24.20
2017-07-06T21:03:41.015Z,25.83
2017-07-06T21:06:08.694Z,28.50
2017-07-06T21:08:36.179Z,28.53
2017-07-06T21:11:03.673Z,24.70
2017-07-06T21:13:31.144Z,24.90
2017-07-06T21:15:58.621Z,25.20
2017-07-06T21:18:26.110Z,22.67
2017-07-06T21:20:53.584Z,17.53
2017-07-06T21:23:21.080Z,16.00
2017-07-06T21:25:48.584Z,14.20
2017-07-06T21:28:16.106Z,13.47
2017-07-06T21:30:43.609Z,17.90
2017-07-06T21:33:11.083Z,16.37
2017-07-06T21:35:38.556Z,14.87
2017-07-06T21:38:06.030Z,20.00
2017-07-06T21:40:33.507Z,19.70
2017-07-06T21:43:00.984Z,19.20
2017-07-06T21:45:29.226Z,16.40
2017-07-06T21:47:56.716Z,15.20
2017-07-06T21:50:24.183Z,16.80
2017-07-06T21:52:51.695Z,15.97
2017-07-06T21:55:19.217Z,13.30
2017-07-06T21:57:46.718Z,13.53
2017-07-06T22:00:14.183Z,11.43
2017-07-06T22:02:41.674Z,12.13
2017-07-06T22:05:09.146Z,11.63
2017-07-06T22:07:36.650Z,10.63
2017-07-06T22:10:04.162Z,13.63
2017-07-06T22:12:31.644Z,16.00
2017-07-06T22:14:59.148Z,17.43
2017-07-06T22:17:27.391Z,18.80
2017-07-06T22:19:54.859Z,17.30
2017-07-06T22:22:22.407Z,23.07
2017-07-06T22:24:49.895Z,23.67
2017-07-06T22:27:18.131Z,24.37
2017-07-06T22:29:45.645Z,27.80
2017-07-06T22:32:13.110Z,25.97
2017-07-06T22:34:40.571Z,32.43
2017-07-06T22:37:08.062Z,37.03
2017-07-06T22:39:35.675Z,30.90
2017-07-06T22:42:03.487Z,29.73
2017-07-06T22:44:31.087Z,32.40
2017-07-06T22:46:59.356Z,32.33
2017-07-06T22:49:27.678Z,33.70
2017-07-06T22:51:55.135Z,30.00
2017-07-06T22:54:22.618Z,21.50
2017-07-06T22:56:50.267Z,22.53
2017-07-06T22:59:17.735Z,18.40
2017-07-06T23:01:45.273Z,23.83
2017-07-06T23:04:12.753Z,24.97
2017-07-06T23:06:40.256Z,25.67
2017-07-06T23:09:07.714Z,29.90
2017-07-06T23:11:35.194Z,29.87
2017-07-06T23:14:02.663Z,28.63
2017-07-06T23:16:30.128Z,27.53
2017-07-06T23:18:57.595Z,28.30
2017-07-06T23:21:25.060Z,28.97
2017-07-06T23:23:52.518Z,13.33
2017-07-06T23:26:19.997Z,4.67
2017-07-06T23:28:47.463Z,8.37
2017-07-06T23:31:14.952Z,13.33
2017-07-06T23:33:42.417Z,24.53
2017-07-06T23:36:09.878Z,21.30
2017-07-06T23:38:37.350Z,15.90
2017-07-06T23:41:04.819Z,10.87
2017-07-06T23:43:32.299Z,12.70
2017-07-06T23:46:00.550Z,17.00
2017-07-06T23:48:28.011Z,17.07
2017-07-06T23:50:55.488Z,17.90
2017-07-06T23:53:22.946Z,16.53
2017-07-06T23:55:50.402Z,16.67
2017-07-06T23:58:17.892Z,17.53
